Observation data for Clarendon on 11/09/2019      Previous  Date       Current Mesonet Observations  Soil Data  Daily Summary Page  Observations in Plain Language
KCES 090600Z 24002KT 04/03 A3025 RMK A01 T00390029  RH  094%=      5-min Rain = 0
KCES 090605Z 22000KT 04/03 A3025 RMK A01 T00420032  RH  095%=      5-min Rain = 0
KCES 090610Z 19001KT 04/03 A3025 RMK A01 T00410030  RH  094%=      5-min Rain = 0
KCES 090615Z 20001KT 04/03 A3024 RMK A01 T00400029  RH  094%=      5-min Rain = 0
KCES 090620Z 18000KT 04/03 A3024 RMK A01 T00410031  RH  094%=      5-min Rain = 0.01
KCES 090625Z 17001KT 04/03 A3024 RMK A01 T00420031  RH  094%=      5-min Rain = 0
KCES 090630Z 17002KT 04/03 A3024 RMK A01 T00410030  RH  094%=      5-min Rain = 0
KCES 090635Z 18003KT 04/03 A3024 RMK A01 T00380026  RH  094%=      5-min Rain = 0
KCES 090640Z 19002KT 04/03 A3024 RMK A01 T00400029  RH  094%=      5-min Rain = 0
KCES 090645Z 19002KT 04/03 A3024 RMK A01 T00430033  RH  095%=      5-min Rain = 0
KCES 090650Z 18001KT 04/03 A3024 RMK A01 T00440033  RH  094%=      5-min Rain = 0
KCES 090655Z 20002KT 05/04 A3024 RMK A01 T00480037  RH  094%=      5-min Rain = 0
KCES 090700Z 19003KT 05/04 A3024 RMK A01 T00500038  RH  094%=      5-min Rain = 0
KCES 090705Z 18003KT 05/04 A3024 RMK A01 T00500037  RH  093%=      5-min Rain = 0
KCES 090710Z 20002KT 05/04 A3024 RMK A01 T00520038  RH  093%=      5-min Rain = 0
KCES 090715Z 21002KT 05/04 A3024 RMK A01 T00520037  RH  092%=      5-min Rain = 0
KCES 090720Z 22002KT 05/04 A3024 RMK A01 T00520037  RH  092%=      5-min Rain = 0
KCES 090725Z 24002KT 05/04 A3024 RMK A01 T00530037  RH  091%=      5-min Rain = 0
KCES 090730Z 26002KT 06/04 A3023 RMK A01 T00550039  RH  091%=      5-min Rain = 0
KCES 090735Z 26003KT 06/04 A3023 RMK A01 T00560040  RH  091%=      5-min Rain = 0
KCES 090740Z 27004KT 06/04 A3023 RMK A01 T00580040  RH  090%=      5-min Rain = 0
KCES 090745Z 28003KT 06/04 A3023 RMK A01 T00580038  RH  089%=      5-min Rain = 0
KCES 090750Z 27003KT 06/04 A3023 RMK A01 T00580039  RH  089%=      5-min Rain = 0
KCES 090755Z 26003KT 06/04 A3022 RMK A01 T00580037  RH  088%=      5-min Rain = 0
KCES 090800Z 26004KT 06/04 A3022 RMK A01 T00570035  RH  088%=      5-min Rain = 0
KCES 090805Z 26005KT 05/03 A3022 RMK A01 T00530031  RH  087%=      5-min Rain = 0
KCES 090810Z 26005KT 05/03 A3021 RMK A01 T00500030  RH  089%=      5-min Rain = 0
KCES 090815Z 25004KT 05/03 A3021 RMK A01 T00490031  RH  089%=      5-min Rain = 0
KCES 090820Z 23004KT 05/03 A3021 RMK A01 T00500032  RH  090%=      5-min Rain = 0
KCES 090825Z 23005KT 05/04 A3021 RMK A01 T00530035  RH  090%=      5-min Rain = 0
KCES 090830Z 25006KT 06/04 A3021 RMK A01 T00560036  RH  088%=      5-min Rain = 0
KCES 090835Z 25006KT 05/03 A302 RMK A01 T00540033  RH  088%=      5-min Rain = 0
KCES 090840Z 25004KT 06/03 A302 RMK A01 T00550033  RH  088%=      5-min Rain = 0
KCES 090845Z 23004KT 05/03 A302 RMK A01 T00540033  RH  088%=      5-min Rain = 0
KCES 090850Z 24004KT 05/03 A302 RMK A01 T00540034  RH  088%=      5-min Rain = 0
KCES 090855Z 25004KT 05/03 A302 RMK A01 T00540033  RH  088%=      5-min Rain = 0
KCES 090900Z 27004KT 05/03 A302 RMK A01 T00540033  RH  088%=      5-min Rain = 0
KCES 090905Z 28003KT 05/03 A302 RMK A01 T00540033  RH  088%=      5-min Rain = 0
KCES 090910Z 27003KT 05/03 A302 RMK A01 T00540032  RH  087%=      5-min Rain = 0
KCES 090915Z 28002KT 05/03 A302 RMK A01 T00530031  RH  088%=      5-min Rain = 0
KCES 090920Z 27003KT 05/03 A302 RMK A01 T00520031  RH  088%=      5-min Rain = 0
KCES 090925Z 27004KT 05/03 A302 RMK A01 T00510028  RH  087%=      5-min Rain = 0
KCES 090930Z 26003KT 05/02 A302 RMK A01 T00480024  RH  086%=      5-min Rain = 0
KCES 090935Z 27003KT 05/02 A302 RMK A01 T00460022  RH  086%=      5-min Rain = 0
KCES 090940Z 27002KT 05/02 A3019 RMK A01 T00450021  RH  086%=      5-min Rain = 0
KCES 090945Z 30001KT 05/02 A3019 RMK A01 T00450021  RH  086%=      5-min Rain = 0
KCES 090950Z 30003KT 05/02 A3019 RMK A01 T00460022  RH  086%=      5-min Rain = 0
KCES 090955Z 30002KT 05/02 A3019 RMK A01 T00480022  RH  085%=      5-min Rain = 0
KCES 091000Z 28001KT 05/02 A3019 RMK A01 T00470021  RH  084%=      5-min Rain = 0
KCES 091005Z 02002KT 05/02 A3019 RMK A01 T00460019  RH  084%=      5-min Rain = 0
KCES 091010Z 03002KT 04/02 A3019 RMK A01 T00430017  RH  085%=      5-min Rain = 0
KCES 091015Z 05001KT 04/02 A3019 RMK A01 T00410017  RH  086%=      5-min Rain = 0
KCES 091020Z 04002KT 04/02 A3019 RMK A01 T00400017  RH  086%=      5-min Rain = 0
KCES 091025Z 30002KT 04/02 A3019 RMK A01 T00390017  RH  087%=      5-min Rain = 0
KCES 091030Z 28003KT 04/02 A3019 RMK A01 T00390017  RH  087%=      5-min Rain = 0
KCES 091035Z 31001KT 04/02 A3018 RMK A01 T00390018  RH  087%=      5-min Rain = 0
KCES 091040Z 34001KT 04/02 A3018 RMK A01 T00390018  RH  087%=      5-min Rain = 0
KCES 091045Z 34002KT 04/02 A3018 RMK A01 T00390019  RH  088%=      5-min Rain = 0
KCES 091050Z 34002KT 04/02 A3018 RMK A01 T00400019  RH  088%=      5-min Rain = 0
KCES 091055Z 01002KT 04/02 A3018 RMK A01 T00400020  RH  088%=      5-min Rain = 0
KCES 091100Z 02002KT 04/02 A3018 RMK A01 T00410021  RH  088%=      5-min Rain = 0
KCES 091105Z 35003KT 04/02 A3018 RMK A01 T00430022  RH  088%=      5-min Rain = 0
KCES 091110Z 36002KT 04/02 A3018 RMK A01 T00440023  RH  088%=      5-min Rain = 0
KCES 091115Z 02001KT 05/02 A3018 RMK A01 T00450024  RH  088%=      5-min Rain = 0
KCES 091120Z 36001KT 05/03 A3018 RMK A01 T00460025  RH  088%=      5-min Rain = 0
KCES 091125Z 35002KT 05/03 A3018 RMK A01 T00470025  RH  087%=      5-min Rain = 0
KCES 091130Z 32002KT 05/03 A3018 RMK A01 T00480026  RH  087%=      5-min Rain = 0
KCES 091135Z 32002KT 05/03 A3018 RMK A01 T00480026  RH  087%=      5-min Rain = 0
KCES 091140Z 34002KT 05/03 A3018 RMK A01 T00480026  RH  087%=      5-min Rain = 0
KCES 091145Z 34002KT 05/03 A3019 RMK A01 T00480025  RH  087%=      5-min Rain = 0
KCES 091150Z 35003KT 05/03 A3019 RMK A01 T00480025  RH  087%=      5-min Rain = 0
KCES 091155Z 33003KT 05/03 A3019 RMK A01 T00480027  RH  088%=      5-min Rain = 0
KCES 091200Z 32004KT 05/03 A3019 RMK A01 T00500028  RH  087%=      5-min Rain = 0
KCES 091205Z 32004KT 05/03 A3019 RMK A01 T00510029  RH  087%=      5-min Rain = 0
KCES 091210Z 33006KT 05/03 A3019 RMK A01 T00520030  RH  087%=      5-min Rain = 0
KCES 091215Z 32008KT 05/03 A3019 RMK A01 T00540030  RH  087%=      5-min Rain = 0
KCES 091220Z 32008KT 06/03 A3019 RMK A01 T00550032  RH  086%=      5-min Rain = 0
KCES 091225Z 32009KT 06/03 A3019 RMK A01 T00560032  RH  086%=      5-min Rain = 0
KCES 091230Z 32009KT 06/03 A3019 RMK A01 T00560032  RH  086%=      5-min Rain = 0
KCES 091235Z 32009KT 06/03 A3019 RMK A01 T00560032  RH  086%=      5-min Rain = 0
KCES 091240Z 32009KT 06/03 A3019 RMK A01 T00570032  RH  086%=      5-min Rain = 0
KCES 091245Z 32009KT 06/03 A3019 RMK A01 T00560031  RH  085%=      5-min Rain = 0
KCES 091250Z 31010KT 06/03 A3019 RMK A01 T00560031  RH  086%=      5-min Rain = 0
KCES 091255Z 31009KT 06/03 A3019 RMK A01 T00580032  RH  085%=      5-min Rain = 0
KCES 091300Z 31008KT 06/03 A3019 RMK A01 T00580032  RH  085%=      5-min Rain = 0
KCES 091305Z 31007KT 06/03 A3019 RMK A01 T00560030  RH  085%=      5-min Rain = 0
KCES 091310Z 31006KT 05/03 A302 RMK A01 T00540029  RH  086%=      5-min Rain = 0
KCES 091315Z 32007KT 05/03 A302 RMK A01 T00530029  RH  086%=      5-min Rain = 0
KCES 091320Z 32007KT 05/03 A302 RMK A01 T00510028  RH  086%=      5-min Rain = 0
KCES 091325Z 31005KT 05/03 A302 RMK A01 T00510028  RH  087%=      5-min Rain = 0
KCES 091330Z 33002KT 05/03 A302 RMK A01 T00510028  RH  087%=      5-min Rain = 0
KCES 091335Z 33002KT 05/03 A302 RMK A01 T00520029  RH  086%=      5-min Rain = 0
KCES 091340Z 33002KT 06/03 A302 RMK A01 T00550031  RH  086%=      5-min Rain = 0
KCES 091345Z 33003KT 06/03 A302 RMK A01 T00560030  RH  085%=      5-min Rain = 0
KCES 091350Z 32006KT 06/03 A302 RMK A01 T00580032  RH  085%=      5-min Rain = 0
KCES 091355Z 32007KT 06/03 A302 RMK A01 T00610034  RH  084%=      5-min Rain = 0
KCES 091400Z 31007KT 06/04 A302 RMK A01 T00640035  RH  083%=      5-min Rain = 0
KCES 091405Z 31006KT 07/04 A302 RMK A01 T00680037  RH  083%=      5-min Rain = 0
KCES 091410Z 32005KT 07/04 A302 RMK A01 T00710038  RH  081%=      5-min Rain = 0
KCES 091415Z 31005KT 07/04 A302 RMK A01 T00730040  RH  081%=      5-min Rain = 0
KCES 091420Z 31003KT 08/04 A302 RMK A01 T00770043  RH  080%=      5-min Rain = 0
KCES 091425Z 33002KT 08/05 A3021 RMK A01 T00820046  RH  080%=      5-min Rain = 0
KCES 091430Z 32003KT 08/05 A3021 RMK A01 T00840045  RH  078%=      5-min Rain = 0
KCES 091435Z 32003KT 09/05 A3021 RMK A01 T00860047  RH  078%=      5-min Rain = 0
KCES 091440Z 32004KT 09/05 A3021 RMK A01 T00890048  RH  077%=      5-min Rain = 0
KCES 091445Z 33005KT 09/05 A3021 RMK A01 T00920049  RH  076%=      5-min Rain = 0
KCES 091450Z 34004KT 10/05 A3021 RMK A01 T00950052  RH  076%=      5-min Rain = 0
KCES 091455Z 32004KT 10/05 A3021 RMK A01 T00970050  RH  074%=      5-min Rain = 0
KCES 091500Z 33005KT 10/05 A3021 RMK A01 T00990051  RH  074%=      5-min Rain = 0
KCES 091505Z 34006KT 10/05 A3021 RMK A01 T01020053  RH  073%=      5-min Rain = 0
KCES 091510Z 34006KT 11/06 A3021 RMK A01 T01050055  RH  073%=      5-min Rain = 0
KCES 091515Z 32005KT 11/06 A3021 RMK A01 T01100057  RH  071%=      5-min Rain = 0
KCES 091520Z 32003KT 12/06 A3021 RMK A01 T01150058  RH  069%=      5-min Rain = 0
KCES 091525Z 33005KT 12/06 A3021 RMK A01 T01190057  RH  067%=      5-min Rain = 0
KCES 091530Z 32005KT 12/06 A3021 RMK A01 T01230056  RH  065%=      5-min Rain = 0
KCES 091535Z 34006KT 13/06 A3021 RMK A01 T01270055  RH  063%=      5-min Rain = 0
KCES 091540Z 33005KT 13/06 A3021 RMK A01 T01330057  RH  062%=      5-min Rain = 0
KCES 091545Z 34005KT 14/06 A3021 RMK A01 T01390059  RH  060%=      5-min Rain = 0
KCES 091550Z 32005KT 14/06 A3021 RMK A01 T01430057  RH  058%=      5-min Rain = 0
KCES 091555Z 33006KT 15/06 A3021 RMK A01 T01470056  RH  056%=      5-min Rain = 0
KCES 091600Z 32005KT 15/06 A3021 RMK A01 T01530059  RH  055%=      5-min Rain = 0
KCES 091605Z 32007KT 16/06 A3021 RMK A01 T01580057  RH  052%=      5-min Rain = 0
KCES 091610Z 31007KT 16/06 A3021 RMK A01 T01610056  RH  051%=      5-min Rain = 0
KCES 091615Z 31006KT 16/06 A3021 RMK A01 T01640056  RH  050%=      5-min Rain = 0
KCES 091620Z 31005KT 17/06 A3021 RMK A01 T01690058  RH  049%=      5-min Rain = 0
KCES 091625Z 32004KT 17/06 A3021 RMK A01 T01730059  RH  048%=      5-min Rain = 0
KCES 091630Z 33004KT 18/06 A3021 RMK A01 T01790058  RH  046%=      5-min Rain = 0
KCES 091635Z 34005KT 18/06 A3021 RMK A01 T01810056  RH  045%=      5-min Rain = 0
KCES 091640Z 34005KT 18/05 A302 RMK A01 T01840050  RH  042%=      5-min Rain = 0
KCES 091645Z 32005KT 19/05 A302 RMK A01 T01880050  RH  041%=      5-min Rain = 0
KCES 091650Z 32004KT 19/04 A302 RMK A01 T01900044  RH  039%=      5-min Rain = 0
KCES 091655Z 32004KT 19/05 A302 RMK A01 T01940046  RH  039%=      5-min Rain = 0
KCES 091700Z 30003KT 20/04 A302 RMK A01 T01980040  RH  036%=      5-min Rain = 0
KCES 091705Z 30001KT 20/04 A302 RMK A01 T02010042  RH  036%=      5-min Rain = 0
KCES 091710Z 27002KT 20/03 A302 RMK A01 T02040034  RH  033%=      5-min Rain = 0
KCES 091715Z 28002KT 21/03 A302 RMK A01 T02060030  RH  032%=      5-min Rain = 0
KCES 091720Z 29002KT 21/03 A302 RMK A01 T02090027  RH  031%=      5-min Rain = 0
KCES 091725Z 26003KT 21/03 A302 RMK A01 T02120029  RH  030%=      5-min Rain = 0
KCES 091730Z 25003KT 21/03 A3019 RMK A01 T02140029  RH  030%=      5-min Rain = 0
KCES 091735Z 19003KT 22/03 A3019 RMK A01 T02180030  RH  030%=      5-min Rain = 0
KCES 091740Z 21004KT 22/03 A3019 RMK A01 T02220026  RH  028%=      5-min Rain = 0
KCES 091745Z 21005KT 22/02 A3019 RMK A01 T02230018  RH  026%=      5-min Rain = 0
KCES 091750Z 20006KT 22/01 A3018 RMK A01 T02240012  RH  025%=      5-min Rain = 0
KCES 091755Z 19006KT 22/01 A3018 RMK A01 T02230010  RH  025%=      5-min Rain = 0
KCES 091800Z 21006KT 23/01 A3018 RMK A01 T02270005  RH  023%=      5-min Rain = 0
KCES 091805Z 22007KT 23/01 A3018 RMK A01 T02260009  RH  024%=      5-min Rain = 0
KCES 091810Z 21007KT 23/02 A3017 RMK A01 T02250017  RH  026%=      5-min Rain = 0
KCES 091815Z 19007KT 22/01 A3017 RMK A01 T02240007  RH  024%=      5-min Rain = 0
KCES 091820Z 20007KT 22/01 A3017 RMK A01 T02240010  RH  025%=      5-min Rain = 0
KCES 091825Z 22007KT 23/02 A3017 RMK A01 T02280022  RH  026%=      5-min Rain = 0
KCES 091830Z 22009KT 23/02 A3016 RMK A01 T02250016  RH  026%=      5-min Rain = 0
KCES 091835Z 20008KT 22/01 A3016 RMK A01 T02230011  RH  025%=      5-min Rain = 0
KCES 091840Z 21009KT 23/00 A3016 RMK A01 T02250002  RH  023%=      5-min Rain = 0
KCES 091845Z 21010KT 22/M01 A3015 RMK A01 T02231006  RH  022%=      5-min Rain = 0
KCES 091850Z 21009KT 22/00 A3015 RMK A01 T02210003  RH  024%=      5-min Rain = 0
KCES 091855Z 21009KT 22/M00 A3015 RMK A01 T02211002  RH  023%=      5-min Rain = 0
KCES 091900Z 21008KT 22/01 A3015 RMK A01 T02230008  RH  024%=      5-min Rain = 0
KCES 091905Z 22007KT 22/01 A3014 RMK A01 T02240006  RH  024%=      5-min Rain = 0
KCES 091910Z 22008KT 23/02 A3014 RMK A01 T02260015  RH  025%=      5-min Rain = 0
KCES 091915Z 22007KT 23/02 A3014 RMK A01 T02270020  RH  026%=      5-min Rain = 0
KCES 091920Z 20007KT 23/02 A3013 RMK A01 T02270021  RH  026%=      5-min Rain = 0
KCES 091925Z 21007KT 23/02 A3013 RMK A01 T02260021  RH  026%=      5-min Rain = 0
KCES 091930Z 21007KT 23/02 A3013 RMK A01 T02280021  RH  026%=      5-min Rain = 0
KCES 091935Z 22008KT 23/01 A3013 RMK A01 T02300013  RH  024%=      5-min Rain = 0
KCES 091940Z 22008G13KT 23/01 A3013 RMK A01 T02310012  RH  024%=      5-min Rain = 0
KCES 091945Z 21009KT 24/01 A3012 RMK A01 T02350010  RH  023%=      5-min Rain = 0
KCES 091950Z 21007KT 23/01 A3012 RMK A01 T02320005  RH  023%=      5-min Rain = 0
KCES 091955Z 21009KT 24/01 A3012 RMK A01 T02350007  RH  022%=      5-min Rain = 0
KCES 092000Z 20008G13KT 23/01 A3012 RMK A01 T02340005  RH  022%=      5-min Rain = 0
KCES 092005Z 21008KT 24/M00 A3011 RMK A01 T02371003  RH  021%=      5-min Rain = 0
KCES 092010Z 21009G15KT 24/M00 A3011 RMK A01 T02371003  RH  021%=      5-min Rain = 0
KCES 092015Z 20008KT 24/M00 A3011 RMK A01 T02371002  RH  021%=      5-min Rain = 0
KCES 092020Z 22010KT 24/M01 A3011 RMK A01 T02371009  RH  020%=      5-min Rain = 0
KCES 092025Z 20009G14KT 24/M00 A301 RMK A01 T02391002  RH  021%=      5-min Rain = 0
KCES 092030Z 20008G13KT 24/00 A301 RMK A01 T02400000  RH  021%=      5-min Rain = 0
KCES 092035Z 21011KT 24/M01 A301 RMK A01 T02411006  RH  020%=      5-min Rain = 0
KCES 092040Z 22011KT 24/M01 A301 RMK A01 T02421012  RH  019%=      5-min Rain = 0
KCES 092045Z 23010KT 24/M01 A301 RMK A01 T02411007  RH  019%=      5-min Rain = 0
KCES 092050Z 22009KT 24/M01 A3009 RMK A01 T02421006  RH  020%=      5-min Rain = 0
KCES 092055Z 20010KT 24/M00 A3009 RMK A01 T02421002  RH  020%=      5-min Rain = 0
KCES 092100Z 22009KT 24/00 A3009 RMK A01 T02440001  RH  020%=      5-min Rain = 0
KCES 092105Z 20010KT 24/00 A3009 RMK A01 T02430002  RH  021%=      5-min Rain = 0
KCES 092110Z 20010G15KT 24/00 A3009 RMK A01 T02430001  RH  021%=      5-min Rain = 0
KCES 092115Z 20008KT 24/M00 A3009 RMK A01 T02421002  RH  020%=      5-min Rain = 0
KCES 092120Z 20010KT 24/M00 A3008 RMK A01 T02431003  RH  020%=      5-min Rain = 0
KCES 092125Z 20013KT 24/M01 A3008 RMK A01 T02431011  RH  019%=      5-min Rain = 0
KCES 092130Z 20010KT 24/M01 A3008 RMK A01 T02431009  RH  019%=      5-min Rain = 0
KCES 092135Z 19011KT 24/M01 A3008 RMK A01 T02441008  RH  019%=      5-min Rain = 0
KCES 092140Z 20008KT 24/M01 A3008 RMK A01 T02441012  RH  018%=      5-min Rain = 0
KCES 092145Z 20009G14KT 25/M02 A3008 RMK A01 T02461021  RH  017%=      5-min Rain = 0
KCES 092150Z 19010KT 24/M03 A3008 RMK A01 T02441028  RH  016%=      5-min Rain = 0
KCES 092155Z 21009KT 24/M03 A3008 RMK A01 T02441029  RH  016%=      5-min Rain = 0
KCES 092200Z 20011KT 24/M03 A3007 RMK A01 T02441026  RH  017%=      5-min Rain = 0
KCES 092205Z 20009KT 24/M03 A3007 RMK A01 T02421026  RH  017%=      5-min Rain = 0
KCES 092210Z 21009KT 24/M03 A3007 RMK A01 T02421025  RH  017%=      5-min Rain = 0
KCES 092215Z 20009KT 24/M02 A3007 RMK A01 T02421022  RH  017%=      5-min Rain = 0
KCES 092220Z 20010KT 24/M02 A3007 RMK A01 T02411022  RH  017%=      5-min Rain = 0
KCES 092225Z 20008KT 24/M02 A3007 RMK A01 T02401024  RH  017%=      5-min Rain = 0
KCES 092230Z 19007KT 24/M03 A3007 RMK A01 T02401025  RH  017%=      5-min Rain = 0
KCES 092235Z 19009KT 24/M03 A3007 RMK A01 T02391027  RH  017%=      5-min Rain = 0
KCES 092240Z 19009KT 24/M03 A3006 RMK A01 T02361027  RH  017%=      5-min Rain = 0
KCES 092245Z 19008KT 24/M03 A3006 RMK A01 T02351030  RH  017%=      5-min Rain = 0
KCES 092250Z 19007KT 23/M03 A3007 RMK A01 T02331027  RH  018%=      5-min Rain = 0
KCES 092255Z 20007KT 23/M02 A3007 RMK A01 T02311023  RH  018%=      5-min Rain = 0
KCES 092300Z 20007KT 23/M02 A3007 RMK A01 T02281018  RH  019%=      5-min Rain = 0
KCES 092305Z 19006KT 22/M01 A3007 RMK A01 T02241012  RH  021%=      5-min Rain = 0
KCES 092310Z 19008KT 22/M01 A3007 RMK A01 T02191008  RH  022%=      5-min Rain = 0
KCES 092315Z 19007KT 21/M00 A3006 RMK A01 T02131004  RH  024%=      5-min Rain = 0
KCES 092320Z 19007KT 21/M00 A3006 RMK A01 T02061002  RH  025%=      5-min Rain = 0
KCES 092325Z 19006KT 20/M00 A3006 RMK A01 T01971002  RH  027%=      5-min Rain = 0
KCES 092330Z 19006KT 19/M00 A3006 RMK A01 T01861001  RH  029%=      5-min Rain = 0
KCES 092335Z 18005KT 18/M00 A3006 RMK A01 T01751002  RH  031%=      5-min Rain = 0
KCES 092340Z 18005KT 16/M00 A3006 RMK A01 T01631001  RH  033%=      5-min Rain = 0
KCES 092345Z 19006KT 15/M00 A3006 RMK A01 T01501001  RH  036%=      5-min Rain = 0
KCES 092350Z 18006KT 14/00 A3006 RMK A01 T014200-0  RH  038%=      5-min Rain = 0
KCES 092355Z 18006KT 14/00 A3006 RMK A01 T01360002  RH  040%=      5-min Rain = 0
KCES 100000Z 18006KT 13/00 A3006 RMK A01 T01310004  RH  042%=      5-min Rain = 0
KCES 100005Z 18006KT 13/01 A3006 RMK A01 T01250006  RH  045%=      5-min Rain = 0
KCES 100010Z 18006KT 12/01 A3006 RMK A01 T01220009  RH  046%=      5-min Rain = 0
KCES 100015Z 18006KT 12/01 A3006 RMK A01 T01200009  RH  047%=      5-min Rain = 0
KCES 100020Z 18006KT 12/01 A3006 RMK A01 T01180010  RH  048%=      5-min Rain = 0
KCES 100025Z 18006KT 12/01 A3006 RMK A01 T01170010  RH  048%=      5-min Rain = 0
KCES 100030Z 18006KT 12/01 A3006 RMK A01 T01160011  RH  049%=      5-min Rain = 0
KCES 100035Z 18006KT 11/01 A3006 RMK A01 T01140012  RH  050%=      5-min Rain = 0
KCES 100040Z 18006KT 11/01 A3006 RMK A01 T01120013  RH  051%=      5-min Rain = 0
KCES 100045Z 18007KT 11/01 A3006 RMK A01 T01100013  RH  052%=      5-min Rain = 0
KCES 100050Z 18007KT 11/01 A3006 RMK A01 T01090014  RH  053%=      5-min Rain = 0
KCES 100055Z 18006KT 11/01 A3006 RMK A01 T01090014  RH  053%=      5-min Rain = 0
KCES 100100Z 18006KT 11/01 A3006 RMK A01 T01080014  RH  053%=      5-min Rain = 0
KCES 100105Z 18006KT 11/02 A3006 RMK A01 T01060015  RH  054%=      5-min Rain = 0
KCES 100110Z 18007KT 11/02 A3007 RMK A01 T01060015  RH  054%=      5-min Rain = 0
KCES 100115Z 19008KT 11/02 A3007 RMK A01 T01060015  RH  054%=      5-min Rain = 0
KCES 100120Z 19008KT 10/02 A3007 RMK A01 T01030015  RH  055%=      5-min Rain = 0
KCES 100125Z 20009KT 10/02 A3007 RMK A01 T01030015  RH  055%=      5-min Rain = 0
KCES 100130Z 20009KT 11/02 A3007 RMK A01 T01070015  RH  054%=      5-min Rain = 0
KCES 100135Z 20008KT 11/02 A3007 RMK A01 T01100016  RH  053%=      5-min Rain = 0
KCES 100140Z 19008KT 11/02 A3007 RMK A01 T01110015  RH  052%=      5-min Rain = 0
KCES 100145Z 20009KT 11/02 A3007 RMK A01 T01090015  RH  053%=      5-min Rain = 0
KCES 100150Z 19010KT 11/02 A3007 RMK A01 T01080016  RH  054%=      5-min Rain = 0
KCES 100155Z 19009KT 11/02 A3007 RMK A01 T01090017  RH  054%=      5-min Rain = 0
KCES 100200Z 19008KT 11/02 A3006 RMK A01 T01070016  RH  054%=      5-min Rain = 0
KCES 100205Z 20008KT 10/01 A3006 RMK A01 T01030014  RH  055%=      5-min Rain = 0
KCES 100210Z 20008KT 10/01 A3006 RMK A01 T01010014  RH  056%=      5-min Rain = 0
KCES 100215Z 19008KT 10/02 A3006 RMK A01 T00990016  RH  057%=      5-min Rain = 0
KCES 100220Z 19009KT 10/02 A3006 RMK A01 T01000019  RH  058%=      5-min Rain = 0
KCES 100225Z 19009KT 10/02 A3006 RMK A01 T01040019  RH  056%=      5-min Rain = 0
KCES 100230Z 20010KT 11/02 A3006 RMK A01 T01060019  RH  056%=      5-min Rain = 0
KCES 100235Z 20010KT 11/02 A3006 RMK A01 T01130018  RH  053%=      5-min Rain = 0
KCES 100240Z 20010KT 12/02 A3006 RMK A01 T01180020  RH  052%=      5-min Rain = 0
KCES 100245Z 20010KT 12/02 A3006 RMK A01 T01150021  RH  053%=      5-min Rain = 0
KCES 100250Z 20009KT 12/02 A3006 RMK A01 T01160023  RH  053%=      5-min Rain = 0
KCES 100255Z 21009KT 12/02 A3006 RMK A01 T01210023  RH  052%=      5-min Rain = 0
KCES 100300Z 21009KT 12/02 A3006 RMK A01 T01230023  RH  051%=      5-min Rain = 0
KCES 100305Z 21009KT 12/02 A3006 RMK A01 T01210022  RH  052%=      5-min Rain = 0
KCES 100310Z 21009KT 12/02 A3006 RMK A01 T01170022  RH  053%=      5-min Rain = 0
KCES 100315Z 20009KT 11/02 A3006 RMK A01 T01110022  RH  055%=      5-min Rain = 0
KCES 100320Z 20009KT 10/02 A3006 RMK A01 T01040021  RH  057%=      5-min Rain = 0
KCES 100325Z 20010KT 10/02 A3006 RMK A01 T01000020  RH  059%=      5-min Rain = 0
KCES 100330Z 21008KT 09/02 A3006 RMK A01 T00940019  RH  061%=      5-min Rain = 0
KCES 100335Z 20007KT 09/02 A3006 RMK A01 T00880019  RH  063%=      5-min Rain = 0
KCES 100340Z 21004KT 08/02 A3006 RMK A01 T00840019  RH  064%=      5-min Rain = 0
KCES 100345Z 21005KT 08/02 A3007 RMK A01 T00810018  RH  065%=      5-min Rain = 0
KCES 100350Z 22004KT 08/02 A3007 RMK A01 T00800017  RH  065%=      5-min Rain = 0
KCES 100355Z 22005KT 08/02 A3007 RMK A01 T00780017  RH  066%=      5-min Rain = 0
KCES 100400Z 21006KT 08/02 A3007 RMK A01 T00770017  RH  067%=      5-min Rain = 0
KCES 100405Z 22007KT 08/02 A3007 RMK A01 T00750017  RH  068%=      5-min Rain = 0
KCES 100410Z 22008KT 08/02 A3007 RMK A01 T00770018  RH  068%=      5-min Rain = 0
KCES 100415Z 22007KT 08/02 A3007 RMK A01 T00790019  RH  067%=      5-min Rain = 0
KCES 100420Z 23008KT 08/02 A3007 RMK A01 T00800020  RH  067%=      5-min Rain = 0
KCES 100425Z 23007KT 08/02 A3007 RMK A01 T00820022  RH  067%=      5-min Rain = 0
KCES 100430Z 22007KT 09/02 A3007 RMK A01 T00870024  RH  066%=      5-min Rain = 0
KCES 100435Z 22007KT 09/02 A3007 RMK A01 T00870024  RH  066%=      5-min Rain = 0
KCES 100440Z 22008KT 08/02 A3007 RMK A01 T00810023  RH  068%=      5-min Rain = 0
KCES 100445Z 22009KT 08/02 A3007 RMK A01 T00780023  RH  069%=      5-min Rain = 0
KCES 100450Z 22008KT 08/02 A3007 RMK A01 T00760023  RH  070%=      5-min Rain = 0
KCES 100455Z 23007KT 07/02 A3007 RMK A01 T00730022  RH  071%=      5-min Rain = 0
KCES 100500Z 23008KT 08/03 A3007 RMK A01 T00790026  RH  071%=      5-min Rain = 0
KCES 100505Z 22008KT 09/03 A3007 RMK A01 T00920031  RH  067%=      5-min Rain = 0
KCES 100510Z 22009KT 10/03 A3007 RMK A01 T00980033  RH  065%=      5-min Rain = 0
KCES 100515Z 22010KT 10/03 A3006 RMK A01 T01020032  RH  063%=      5-min Rain = 0
KCES 100520Z 22009KT 10/03 A3006 RMK A01 T00990031  RH  063%=      5-min Rain = 0
KCES 100525Z 22008KT 09/03 A3006 RMK A01 T00920029  RH  065%=      5-min Rain = 0
KCES 100530Z 23009KT 09/03 A3006 RMK A01 T00880028  RH  067%=      5-min Rain = 0
KCES 100535Z 23009KT 09/03 A3006 RMK A01 T00890031  RH  068%=      5-min Rain = 0
KCES 100540Z 23009KT 10/04 A3006 RMK A01 T01020035  RH  064%=      5-min Rain = 0
KCES 100545Z 22010KT 11/04 A3006 RMK A01 T01080035  RH  062%=      5-min Rain = 0
KCES 100550Z 22011KT 11/04 A3006 RMK A01 T01130036  RH  060%=      5-min Rain = 0
KCES 100555Z 22010KT 11/04 A3006 RMK A01 T01130035  RH  060%=      5-min Rain = 0

Page generated in 0.0167 seconds.